Cànoves i Samalús





Hora UTC 16:00
Temperatura 12.6 ºC
Humedad 60.1 %
Presión 1010.8 hPa
Pluja 0.0 mm
Velocidad viento 9.0 km/h
Dirección viento WNW
Radiación solar 12.2 W/m²

Datos diarios 2021-12-04



Hora UTC (invierno +1h; verano +2h)
Temperatura (ºC) Humedad (%) Presión (hPa) Velocidad viento (km/h) Precipitación (mm) Radiación solar (W/m²)
Hora UTC Aire Humedad Presión Vel. Dir. Vel. Max Dir. Intent. máx 5 min. Rad. Sol.
00:05 8.2 73.6 1016.5 5.9 SSW 5.9 SSW 0.0 0.1
00:10 8.0 73.6 1016.3 5.9 SSW 15.2 SSW 0.0 0.1
00:15 8.1 72.5 1016.2 5.8 WSW 11.6 SSW 0.0 0.1
00:20 8.1 72.0 1016.2 6.8 WSW 12.4 WSW 0.0 0.1
00:25 7.9 72.2 1016.1 8.6 SW 21.9 SSW 0.0 0.1
00:30 7.9 71.8 1016.0 6.6 SW 13.8 SW 0.0 0.1
00:35 7.6 72.5 1015.8 3.6 W 9.9 SSW 0.0 0.1
00:40 7.3 74.4 1015.8 3.8 NNW 8.1 NNW 0.0 0.1
00:45 6.8 75.5 1015.6 1.4 W 7.8 SW 0.0 0.1
00:50 6.7 76.0 1015.4 4.9 NW 9.9 NNW 0.0 0.1
00:55 6.8 74.7 1015.4 5.7 WSW 11.3 WSW 0.0 0.1
01:00 7.1 73.2 1015.2 6.4 WNW 10.9 WSW 0.0 0.1
01:05 6.8 75.6 1015.0 9.4 N 13.1 N 0.0 0.1
01:10 6.4 77.6 1014.9 5.3 N 12.0 NNW 0.0 0.1
01:15 6.1 78.7 1015.0 2.2 ENE 4.6 SE 0.0 0.1
01:20 5.7 80.1 1015.0 2.1 NNW 3.9 NW 0.0 0.1
01:25 5.6 80.0 1015.2 4.8 WNW 10.6 WSW 0.0 0.1
01:30 6.0 75.5 1015.1 4.6 SSW 11.6 SW 0.0 0.1
01:35 6.0 76.6 1015.1 3.5 NNE 8.1 N 0.0 0.1
01:40 5.5 79.2 1015.2 4.2 ESE 15.2 S 0.0 0.1
01:45 6.2 75.4 1015.2 4.1 WSW 15.2 SE 0.0 0.1
01:50 6.6 73.3 1015.1 6.2 SSW 16.2 SW 0.0 0.1
01:55 7.2 70.9 1015.1 4.6 W 8.8 SW 0.0 0.1
02:00 7.1 71.4 1014.9 5.8 NNW 9.9 NNW 0.0 0.1
02:05 6.5 73.5 1014.9 3.5 N 6.4 NNW 0.0 0.1
02:10 5.9 76.2 1014.8 5.2 N 13.1 NNE 0.0 0.1
02:15 5.8 77.0 1014.6 6.8 N 12.7 NNW 0.0 0.1
02:20 5.4 78.2 1014.6 2.2 NNE 6.0 NNW 0.0 0.1
02:25 5.0 80.0 1014.6 4.2 NW 8.1 WNW 0.0 0.1
02:30 4.9 81.0 1014.6 4.1 ESE 9.2 N 0.0 0.1
02:35 4.7 81.8 1014.6 5.0 N 12.4 NNE 0.0 0.1
02:40 4.6 82.5 1014.5 7.0 N 10.2 NNW 0.0 0.1
02:45 4.7 81.9 1014.4 1.7 NNW 4.9 N 0.0 0.1
02:50 4.6 82.4 1014.3 9.1 NNW 12.4 0.0 0.1
02:55 4.6 82.6 1014.3 7.0 NNW 11.3 N 0.0 0.1
03:00 4.8 81.4 1014.3 3.1 WNW 6.7 N 0.0 0.1
03:05 4.8 81.3 1014.2 5.7 N 12.0 NNW 0.0 0.1
03:10 4.5 82.9 1014.2 5.7 NNW 9.5 NW 0.0 0.1
03:15 4.4 83.5 1014.3 4.9 NNW 9.2 N 0.0 0.1
03:20 4.3 84.2 1014.3 5.0 N 8.5 N 0.0 0.1
03:25 4.1 84.1 1014.3 3.5 ESE 6.4 SSE 0.0 0.1
03:30 4.0 84.6 1014.2 1.2 SSE 4.9 E 0.0 0.1
03:35 4.0 84.9 1014.0 3.6 N 6.0 NW 0.0 0.1
03:40 4.1 84.4 1013.9 2.4 N 7.1 0.0 0.1
03:45 4.1 84.4 1013.8 3.2 ESE 6.4 ESE 0.0 0.1
03:50 4.3 84.3 1013.9 3.5 SW 9.9 N 0.0 0.1
03:55 4.5 83.7 1014.0 6.0 NW 9.9 N 0.0 0.1
04:00 4.6 84.0 1013.9 6.0 NW 7.8 WNW 0.0 0.1
04:05 4.9 82.8 1013.7 7.5 N 14.5 NW 0.0 0.1
04:10 5.2 82.1 1013.7 4.9 WNW 9.5 NW 0.0 0.1
04:15 5.3 80.9 1013.8 1.7 SSE 3.5 SSE 0.0 0.1
04:20 4.9 82.3 1013.8 1.6 ENE 4.9 NNW 0.0 0.1
04:25 4.5 83.7 1013.7 0.5 W 2.5 WNW 0.0 0.1
04:30 4.7 85.5 1013.5 3.4 W 10.2 SSW 0.0 0.1
04:35 5.3 82.0 1013.5 5.2 NNW 8.5 NNW 0.0 0.1
04:40 4.9 82.5 1013.3 5.9 N 8.8 N 0.0 0.1
04:45 4.6 83.3 1013.2 2.3 NW 7.8 NNW 0.0 0.1
04:50 4.6 84.1 1013.0 2.1 ENE 7.1 ESE 0.0 0.1
04:55 4.7 84.4 1013.0 3.9 SE 9.2 E 0.0 0.1
05:00 5.5 83.3 1013.0 4.7 ESE 13.8 SE 0.0 0.1
05:05 7.1 78.0 1013.0 6.3 E 13.8 ESE 0.0 0.1
05:10 7.1 77.0 1013.2 4.1 E 8.5 NE 0.0 0.1
05:15 7.0 78.6 1013.2 4.1 S 10.2 S 0.0 0.1
05:20 7.7 76.9 1013.1 8.7 S 23.6 SSW 0.0 0.1
05:25 8.8 73.7 1013.0 14.2 S 30.3 SSW 0.0 0.1
05:30 8.9 73.4 1013.2 13.4 SSW 25.1 SSW 0.0 0.1
05:35 9.3 71.2 1013.3 13.0 SSW 23.6 S 0.0 0.1
05:40 9.8 69.2 1013.4 12.7 SSW 31.8 WNW 0.0 0.1
05:45 9.6 70.6 1013.3 13.3 S 25.4 SSW 0.0 0.1
05:50 8.9 73.7 1013.3 14.5 S 31.4 S 0.0 0.1
05:55 8.0 77.2 1013.4 12.4 SSE 22.9 SSE 0.0 0.1
06:00 7.9 78.0 1013.4 10.8 SE 17.3 SE 0.0 0.2
06:05 7.9 77.6 1013.4 6.7 E 11.6 ESE 0.0 0.1
06:10 7.8 77.4 1013.4 5.7 NW 18.0 W 0.0 0.2
06:15 7.9 77.1 1013.4 6.2 WNW 12.0 WNW 0.0 0.1
06:20 8.7 74.0 1013.4 8.2 SW 21.2 WNW 0.0 0.1
06:25 9.4 70.8 1013.4 7.6 SW 16.2 W 0.0 0.1
06:30 9.9 68.2 1013.3 10.0 WSW 22.9 WSW 0.0 0.1
06:35 10.5 65.8 1013.4 7.0 SW 20.8 WNW 0.0 0.2
06:40 10.4 65.7 1013.5 8.8 WSW 20.5 W 0.0 0.3
06:45 9.9 68.0 1013.5 9.5 SSW 20.8 SSW 0.0 0.8
06:50 9.3 71.2 1013.6 9.2 SSW 19.1 SW 0.0 1.6
06:55 8.8 73.4 1013.7 11.8 SSW 21.9 SSW 0.0 2.6
07:00 8.5 74.6 1013.8 13.2 S 22.6 SSW 0.0 4.1
07:05 8.5 74.6 1013.8 10.9 SSW 23.3 SW 0.0 5.8
07:10 8.4 75.1 1013.7 8.4 SSW 18.4 SSW 0.0 7.7
07:15 8.5 74.9 1013.7 11.0 SW 21.9 SW 0.0 25.5
07:20 8.5 74.8 1013.6 6.2 SW 14.1 SW 0.0 40.1
07:25 9.0 73.0 1013.6 7.9 WSW 20.5 WSW 0.0 49.8
07:30 9.3 71.8 1013.6 8.5 SSW 17.3 WNW 0.0 60.5
07:35 8.8 73.7 1013.7 10.4 SSW 19.1 SSW 0.0 68.9
07:40 8.5 75.2 1013.8 7.3 SSW 19.1 S 0.0 82.3
07:45 8.5 75.2 1013.8 7.0 S 19.8 S 0.0 93.7
07:50 8.8 74.3 1013.7 8.4 S 20.5 SSE 0.0 105.5
07:55 9.1 73.1 1013.8 4.4 SSW 12.4 SW 0.0 116.8
08:00 9.4 72.4 1013.8 5.0 SSW 13.8 SSW 0.0 128.0
08:05 9.7 71.1 1013.9 5.4 SSW 16.9 W 0.0 125.6
08:10 10.0 70.3 1013.9 3.8 SSE 10.2 SSW 0.0 151.7
08:15 10.2 69.5 1014.0 3.2 SSW 14.5 W 0.0 163.2
08:20 10.3 69.4 1013.9 4.3 WSW 21.2 W 0.0 174.7
08:25 10.5 68.5 1013.9 9.9 W 19.4 NW 0.0 186.5
08:30 10.7 67.5 1013.8 9.6 WNW 19.1 SW 0.0 198.8
08:35 10.8 67.5 1013.8 10.5 WNW 27.2 WNW 0.0 210.0
08:40 10.7 67.9 1013.7 6.7 W 15.5 SW 0.0 221.0
08:45 10.7 68.3 1013.7 9.6 WSW 25.8 WSW 0.0 232.1
08:50 10.6 69.2 1013.5 6.6 SW 18.7 SSW 0.0 242.8
08:55 10.5 69.4 1013.4 7.5 SW 24.0 WSW 0.0 252.3
09:00 10.6 69.8 1013.4 7.6 SSW 22.9 WSW 0.0 263.1
09:05 10.6 69.5 1013.4 9.8 SSW 19.4 SW 0.0 273.7
09:10 10.6 70.0 1013.3 7.8 SW 26.8 SSW 0.0 283.3
09:15 10.8 69.3 1013.3 11.2 SSW 22.9 SSW 0.0 292.7
09:20 10.8 69.2 1013.2 10.9 SSW 22.6 WSW 0.0 302.4
09:25 10.9 68.6 1013.2 14.7 SSW 35.6 SSW 0.0 312.2
09:30 11.1 68.4 1013.2 7.6 SSW 17.6 SSW 0.0 321.2
09:35 11.3 67.4 1013.3 10.5 SW 26.8 WSW 0.0 331.0
09:40 11.7 66.2 1013.3 7.1 WNW 19.8 NW 0.0 339.5
09:45 11.8 65.1 1013.2 9.5 WSW 23.3 W 0.0 347.3
09:50 11.9 64.5 1013.3 9.0 W 23.3 W 0.0 354.3
09:55 12.1 64.0 1013.3 8.1 W 17.6 W 0.0 360.9
10:00 12.2 63.6 1013.2 7.2 W 22.9 SW 0.0 367.9
10:05 12.2 62.9 1013.0 14.0 W 34.9 SW 0.0 374.6
10:10 12.3 62.9 1012.9 11.9 WNW 28.6 NW 0.0 381.3
10:15 12.4 62.6 1012.8 10.2 W 25.8 SW 0.0 387.3
10:20 12.6 61.5 1012.7 10.0 WNW 22.2 WNW 0.0 392.6
10:25 12.7 61.3 1012.7 9.8 WNW 22.6 WNW 0.0 398.9
10:30 13.0 60.8 1012.6 7.9 NW 19.1 NW 0.0 404.9
10:35 13.0 60.7 1012.5 13.9 NW 32.5 NW 0.0 409.7
10:40 13.0 59.9 1012.5 13.0 WNW 33.9 W 0.0 413.7
10:45 13.1 59.6 1012.3 13.4 WNW 39.9 WSW 0.0 418.2
10:50 13.3 58.8 1012.2 15.6 W 37.8 NW 0.0 423.6
10:55 13.4 58.5 1012.1 9.0 W 27.9 WSW 0.0 427.7
11:00 13.7 57.3 1012.1 12.5 WNW 34.9 SW 0.0 431.4
11:05 13.9 56.8 1011.9 14.9 NW 33.2 WNW 0.0 433.8
11:10 14.1 55.8 1011.8 13.7 WNW 35.6 NW 0.0 435.0
11:15 14.2 54.8 1011.8 21.5 WNW 44.5 NW 0.0 438.5
11:20 14.3 54.7 1011.7 16.9 WNW 46.2 NW 0.0 446.2
11:25 14.3 54.5 1011.7 16.9 WNW 41.3 NW 0.0 457.3
11:30 14.5 54.2 1011.6 14.6 WNW 46.2 NW 0.0 473.0
11:35 14.6 53.4 1011.6 16.2 NW 39.5 WNW 0.0 485.0
11:40 14.8 53.6 1011.6 13.0 WNW 45.9 NW 0.0 491.9
11:45 14.8 53.6 1011.6 16.7 NW 36.3 NW 0.0 477.7
11:50 14.6 53.9 1011.6 16.0 NW 40.2 NNW 0.0 212.2
11:55 14.1 55.2 1011.5 11.4 WNW 29.6 NW 0.0 165.8
12:00 13.9 55.8 1011.4 18.8 NW 48.3 NW 0.0 181.2
12:05 13.7 56.4 1011.4 16.6 WNW 45.9 WNW 0.0 214.2
12:10 13.7 56.8 1011.4 17.2 WNW 41.3 WNW 0.0 236.6
12:15 13.7 56.9 1011.3 13.1 WNW 33.2 W 0.0 257.8
12:20 13.7 56.8 1011.2 10.2 WNW 24.0 WNW 0.0 248.5
12:25 13.8 57.1 1011.2 6.1 W 19.4 NNW 0.0 378.7
12:30 14.3 57.2 1011.3 4.4 NNE 15.9 NW 0.0 413.2
12:35 14.4 55.9 1011.4 10.6 W 24.3 WSW 0.0 385.2
12:40 14.4 55.6 1011.5 8.7 NW 29.6 WNW 0.0 206.4
12:45 13.9 56.7 1011.5 15.4 NW 31.8 NW 0.0 135.7
12:50 13.7 58.1 1011.2 9.1 W 18.4 NW 0.0 377.3
12:55 14.1 57.2 1011.2 8.1 W 21.9 SW 0.0 495.5
13:00 14.5 56.4 1011.1 7.7 WNW 22.6 WNW 0.0 508.7
13:05 14.8 55.4 1011.1 8.8 W 27.9 W 0.0 538.4
13:10 14.9 54.7 1011.0 12.4 WNW 24.3 NW 0.0 538.4
13:15 14.9 54.7 1010.9 11.4 WNW 22.2 NNW 0.0 508.1
13:20 14.8 54.6 1010.9 13.6 NW 36.7 NW 0.0 334.6
13:25 14.4 55.3 1010.9 15.8 NW 35.6 NNW 0.0 253.9
13:30 14.0 56.9 1010.9 16.3 NW 32.1 WNW 0.0 256.4
13:35 13.8 57.6 1010.8 11.8 NW 21.2 WNW 0.0 110.7
13:40 13.4 58.7 1010.8 12.1 NNW 27.5 NNW 0.0 87.3
13:45 13.2 59.6 1010.6 12.1 NW 25.8 WNW 0.0 77.1
13:50 13.0 60.0 1010.5 11.0 NNW 23.6 NW 0.0 66.2
13:55 12.9 59.4 1010.4 15.3 NNW 32.1 N 0.0 50.8
14:00 12.9 59.4 1010.4 13.7 NNW 27.2 NNW 0.0 38.7
14:05 12.9 59.2 1010.4 12.9 NNW 27.2 NNW 0.0 34.4
14:10 12.8 59.2 1010.3 12.2 NNW 27.5 NNE 0.0 34.5
14:15 12.8 59.7 1010.3 11.6 NNW 23.3 N 0.0 37.8
14:20 12.7 60.0 1010.5 12.1 NNW 24.0 NNW 0.0 45.5
14:25 12.7 60.2 1010.4 13.4 NNW 24.3 NNW 0.0 48.2
14:30 12.7 60.1 1010.5 10.8 NNW 18.7 NNW 0.0 45.1
14:35 12.6 60.8 1010.5 7.9 NNW 15.5 N 0.0 43.5
14:40 12.6 60.4 1010.4 10.6 NNW 16.9 NNW 0.0 43.4
14:45 12.6 60.3 1010.4 8.0 NNW 15.2 NW 0.0 40.1
14:50 12.6 60.1 1010.5 10.1 NNW 21.5 NNW 0.0 36.0
14:55 12.7 59.6 1010.3 11.0 NNW 20.8 NW 0.0 36.0
15:00 12.7 59.1 1010.4 9.9 NNW 18.0 NW 0.0 39.2
15:05 12.7 59.4 1010.4 8.6 NNW 16.2 NNW 0.0 40.2
15:10 12.7 59.5 1010.4 8.7 NNW 14.1 NNW 0.0 40.8
15:15 12.7 58.8 1010.4 7.8 NNW 14.8 NW 0.0 42.1
15:20 12.8 59.0 1010.4 7.9 NNW 15.2 NW 0.0 40.2
15:25 12.8 58.8 1010.3 7.8 NNW 16.6 NW 0.0 38.7
15:30 12.7 59.2 1010.3 5.1 NNW 12.4 NNW 0.0 34.5
15:35 12.7 59.4 1010.4 5.8 NNW 13.1 N 0.0 30.2
15:40 12.6 59.6 1010.5 5.7 N 10.6 NNE 0.0 26.6
15:45 12.5 60.2 1010.5 2.2 NE 6.4 NE 0.0 22.3
15:50 12.4 60.5 1010.7 1.0 ENE 4.9 ESE 0.0 18.5
15:55 12.4 60.2 1010.8 9.4 NW 16.9 NW 0.0 15.0
16:00 12.6 60.1 1010.8 9.0 WNW 20.8 NNW 0.0 12.2
Máxima 15.0 85.5 1016.5 21.5 WNW 48.3 NW 0.0 538.4
Mínima 3.9 53.4 1010.3
Total 0.0